Time;durP1;ratioP1;P1;durP2;ratioP2;P2;SDS_P1;SDS_P2;PMS_P1;PMS_P2;Temp;Humidity;BMP_temperature;BMP_pressure;BME280_temperature;BME280_humidity;BME280_pressure;Samples;Min_cycle;Max_cycle;Signal;HPM_P1;HPM_P2
2021/09/10 00:00:39;;;;;;;14.73;10.40;;;17.10;99.90;;;;;;5132283;27;20196;-48
2021/09/10 00:03:05;;;;;;;11.00;9.70;;;17.10;99.90;;;;;;5123554;27;20904;-47
2021/09/10 00:05:32;;;;;;;11.20;10.10;;;17.10;99.90;;;;;;5124909;27;20208;-47
2021/09/10 00:07:59;;;;;;;13.10;10.87;;;17.10;99.90;;;;;;5103854;27;20221;-48
2021/09/10 00:10:25;;;;;;;14.03;10.60;;;17.00;99.90;;;;;;5104653;28;20391;-48
2021/09/10 00:12:52;;;;;;;10.93;9.93;;;17.10;99.90;;;;;;5089970;27;20210;-51
2021/09/10 00:15:19;;;;;;;13.10;10.70;;;17.10;99.90;;;;;;5129475;27;20220;-48
2021/09/10 00:17:47;;;;;;;11.43;10.10;;;17.20;99.90;;;;;;5139556;27;20188;-49
2021/09/10 00:20:14;;;;;;;12.23;10.57;;;17.20;99.90;;;;;;5144684;27;20192;-44
2021/09/10 00:22:40;;;;;;;12.37;10.23;;;17.20;99.90;;;;;;5138107;27;20196;-51
2021/09/10 00:25:08;;;;;;;12.73;9.90;;;17.20;99.90;;;;;;5122327;27;20258;-51
2021/09/10 00:27:35;;;;;;;11.40;10.20;;;17.20;99.90;;;;;;5132170;27;20677;-47
2021/09/10 00:30:01;;;;;;;11.83;10.67;;;17.30;99.90;;;;;;5121189;27;20219;-51
2021/09/10 00:32:28;;;;;;;11.33;10.17;;;17.30;99.90;;;;;;5130644;27;20196;-48
2021/09/10 00:34:56;;;;;;;13.47;9.93;;;17.30;99.90;;;;;;5120680;27;20208;-48
2021/09/10 00:37:23;;;;;;;11.73;9.67;;;17.30;99.90;;;;;;5124730;27;20193;-45
2021/09/10 00:39:49;;;;;;;12.30;10.47;;;17.30;99.90;;;;;;5104209;27;20241;-48
2021/09/10 00:42:16;;;;;;;11.57;10.37;;;17.30;99.90;;;;;;5104146;28;20589;-44
2021/09/10 00:44:43;;;;;;;12.70;10.63;;;17.40;99.90;;;;;;5106055;27;20224;-52
2021/09/10 00:47:10;;;;;;;11.80;10.57;;;17.40;99.90;;;;;;5135117;27;20184;-46
2021/09/10 00:49:37;;;;;;;10.33;9.37;;;17.40;99.90;;;;;;5143986;27;20216;-45
2021/09/10 00:52:05;;;;;;;12.87;10.73;;;17.40;99.90;;;;;;5142658;27;20184;-46
2021/09/10 00:54:32;;;;;;;11.20;10.10;;;17.40;99.90;;;;;;5144437;27;20215;-45
2021/09/10 00:56:59;;;;;;;12.50;10.67;;;17.40;99.90;;;;;;5114584;27;20200;-46
2021/09/10 00:59:26;;;;;;;11.50;10.40;;;17.40;99.90;;;;;;5115362;27;20204;-52
2021/09/10 01:01:54;;;;;;;13.50;11.23;;;17.40;99.90;;;;;;5131028;27;20188;-48
2021/09/10 01:04:22;;;;;;;11.70;10.50;;;17.50;99.90;;;;;;5124482;27;20231;-51
2021/09/10 01:06:50;;;;;;;13.43;10.67;;;17.50;99.90;;;;;;5120668;27;20193;-45
2021/09/10 01:09:18;;;;;;;12.83;11.50;;;17.60;99.90;;;;;;5124067;27;20216;-49
2021/09/10 01:11:46;;;;;;;16.37;11.90;;;17.60;99.90;;;;;;5113323;27;20231;-51
2021/09/10 01:14:15;;;;;;;15.17;10.50;;;17.60;99.90;;;;;;5123598;27;20219;-47
2021/09/10 01:16:42;;;;;;;12.53;10.90;;;17.60;99.90;;;;;;5118522;27;20216;-50
2021/09/10 01:19:08;;;;;;;13.47;11.07;;;17.60;99.90;;;;;;5130776;27;20193;-45
2021/09/10 01:21:35;;;;;;;12.43;11.10;;;17.60;99.90;;;;;;5111026;27;20205;-48
2021/09/10 01:24:02;;;;;;;10.77;9.67;;;17.70;99.90;;;;;;5122857;27;20689;-48
2021/09/10 01:26:29;;;;;;;12.77;9.67;;;17.70;99.90;;;;;;5119493;27;20213;-49
2021/09/10 01:29:00;;;;;;;11.77;10.00;;;17.70;99.90;;;;;;5141875;27;20215;-45
2021/09/10 01:31:26;;;;;;;10.50;9.60;;;17.70;99.90;;;;;;5120878;27;20202;-51
2021/09/10 01:33:53;;;;;;;11.57;10.30;;;17.70;99.90;;;;;;5139571;27;20195;-45
2021/09/10 01:36:20;;;;;;;11.23;10.13;;;17.70;99.90;;;;;;5145354;27;20191;-50
2021/09/10 01:38:46;;;;;;;11.10;9.93;;;17.70;99.90;;;;;;5148558;27;20236;-47
2021/09/10 01:41:13;;;;;;;11.70;10.50;;;17.80;99.90;;;;;;5142078;27;20194;-51
2021/09/10 01:43:41;;;;;;;17.70;10.77;;;17.80;99.90;;;;;;5119404;27;20204;-45
2021/09/10 01:46:07;;;;;;;11.23;10.13;;;17.70;99.90;;;;;;5125392;27;20223;-53
2021/09/10 01:48:34;;;;;;;11.17;10.07;;;17.60;99.90;;;;;;5137047;27;20272;-48
2021/09/10 01:51:00;;;;;;;12.23;10.67;;;17.60;99.90;;;;;;5148646;27;20565;-47
2021/09/10 01:53:31;;;;;;;14.47;11.13;;;17.50;99.90;;;;;;5144959;27;20187;-44
2021/09/10 01:55:58;;;;;;;12.80;11.47;;;17.60;99.90;;;;;;5145646;27;20216;-45
2021/09/10 01:58:24;;;;;;;12.90;10.10;;;17.60;99.90;;;;;;5117281;27;20722;-48
2021/09/10 02:00:53;;;;;;;11.50;10.37;;;17.60;99.90;;;;;;5127775;27;20193;-47
2021/09/10 02:03:19;;;;;;;12.03;10.23;;;17.60;99.90;;;;;;5119514;27;20209;-46
2021/09/10 02:05:46;;;;;;;12.37;10.80;;;17.60;99.90;;;;;;5143790;27;20220;-47
2021/09/10 02:08:13;;;;;;;11.03;10.03;;;17.60;99.90;;;;;;5146011;27;20236;-46
2021/09/10 02:10:39;;;;;;;12.03;10.17;;;17.60;99.90;;;;;;5146371;27;20184;-46
2021/09/10 02:13:06;;;;;;;12.17;10.53;;;17.60;99.90;;;;;;5130420;27;20570;-51
2021/09/10 02:15:33;;;;;;;13.17;11.03;;;17.60;99.90;;;;;;5127742;27;20216;-49
2021/09/10 02:18:01;;;;;;;12.13;10.93;;;17.60;99.90;;;;;;5127132;27;20204;-50
2021/09/10 02:20:27;;;;;;;12.20;10.90;;;17.60;99.90;;;;;;5135168;27;21088;-47
2021/09/10 02:22:54;;;;;;;12.43;11.23;;;17.60;99.90;;;;;;5148019;27;20199;-49
2021/09/10 02:25:20;;;;;;;11.60;10.50;;;17.50;99.90;;;;;;5143625;27;20216;-49
2021/09/10 02:27:47;;;;;;;12.50;11.10;;;17.50;99.90;;;;;;5121472;27;20201;-48
2021/09/10 02:30:14;;;;;;;12.50;11.13;;;17.60;99.90;;;;;;5103469;28;20185;-49
2021/09/10 02:32:40;;;;;;;13.40;11.87;;;17.60;99.90;;;;;;5105082;27;20178;-46
2021/09/10 02:35:09;;;;;;;13.07;11.53;;;17.50;99.90;;;;;;5116158;27;20218;-50
2021/09/10 02:37:35;;;;;;;12.90;11.50;;;17.50;99.90;;;;;;5128945;27;20968;-49
2021/09/10 02:40:03;;;;;;;11.73;10.57;;;17.50;99.90;;;;;;5127136;27;20288;-50
2021/09/10 02:42:29;;;;;;;13.30;12.00;;;17.50;99.90;;;;;;5123237;27;20184;-48
2021/09/10 02:44:56;;;;;;;11.03;9.90;;;17.50;99.90;;;;;;5123719;27;20640;-48
2021/09/10 02:47:22;;;;;;;12.83;10.83;;;17.50;99.90;;;;;;5137008;27;20560;-51
2021/09/10 02:49:49;;;;;;;13.30;11.33;;;17.50;99.90;;;;;;5122523;27;20290;-46
2021/09/10 02:52:17;;;;;;;13.13;11.77;;;17.50;99.90;;;;;;5132362;27;20204;-51
2021/09/10 02:54:45;;;;;;;12.77;11.47;;;17.40;99.90;;;;;;5125080;27;20219;-50
2021/09/10 02:57:13;;;;;;;13.50;12.07;;;17.40;99.90;;;;;;5136975;27;20233;-50
2021/09/10 02:59:40;;;;;;;12.50;11.30;;;17.40;99.90;;;;;;5128183;27;20193;-48
2021/09/10 03:02:07;;;;;;;14.33;12.30;;;17.40;99.90;;;;;;5105624;28;20197;-49
2021/09/10 03:04:33;;;;;;;14.77;11.90;;;17.40;99.90;;;;;;5094345;27;22335;-45
2021/09/10 03:07:00;;;;;;;15.50;12.70;;;17.40;99.90;;;;;;5136960;27;20778;-47
2021/09/10 03:09:28;;;;;;;14.13;12.47;;;17.40;99.90;;;;;;5143030;27;20232;-51
2021/09/10 03:11:55;;;;;;;14.53;13.10;;;17.40;99.90;;;;;;5147244;27;20677;-47
2021/09/10 03:14:21;;;;;;;16.73;13.63;;;17.50;99.90;;;;;;5125472;27;20248;-50
2021/09/10 03:16:48;;;;;;;14.17;12.47;;;17.50;99.90;;;;;;5134191;27;20208;-45
2021/09/10 03:19:15;;;;;;;14.47;12.97;;;17.60;99.90;;;;;;5116058;27;20192;-53
2021/09/10 03:21:41;;;;;;;14.73;11.50;;;17.60;99.90;;;;;;5128454;27;20228;-44
2021/09/10 03:24:08;;;;;;;12.87;10.87;;;17.70;99.90;;;;;;5145646;27;20815;-46
2021/09/10 03:26:36;;;;;;;13.00;11.27;;;17.70;99.90;;;;;;5136167;27;20219;-52
2021/09/10 03:29:03;;;;;;;17.17;15.47;;;17.60;99.90;;;;;;5145535;27;20210;-50
2021/09/10 03:31:29;;;;;;;14.33;13.03;;;17.70;99.90;;;;;;5121857;27;20200;-49
2021/09/10 03:33:56;;;;;;;17.07;15.10;;;17.70;99.90;;;;;;5126070;27;20188;-49
2021/09/10 03:36:22;;;;;;;21.10;16.40;;;17.80;99.90;;;;;;5110970;27;20248;-48
2021/09/10 03:38:49;;;;;;;22.03;18.10;;;17.80;99.90;;;;;;5137679;27;20673;-49
2021/09/10 03:41:16;;;;;;;19.40;17.30;;;17.90;99.90;;;;;;5144173;27;20193;-48
2021/09/10 03:43:44;;;;;;;19.43;17.43;;;18.00;99.90;;;;;;5138351;27;20929;-48
2021/09/10 03:46:11;;;;;;;21.93;18.37;;;18.10;99.90;;;;;;5121660;27;20285;-50
2021/09/10 03:48:38;;;;;;;23.07;19.67;;;18.20;99.90;;;;;;5118494;27;20209;-53
2021/09/10 03:51:04;;;;;;;23.17;19.40;;;18.30;99.90;;;;;;5124911;27;20204;-48
2021/09/10 03:53:31;;;;;;;23.70;20.10;;;18.40;99.90;;;;;;5119770;27;20199;-46
2021/09/10 03:55:57;;;;;;;25.53;20.67;;;18.50;99.90;;;;;;5134284;27;20212;-44
2021/09/10 03:58:24;;;;;;;23.13;20.60;;;18.50;99.90;;;;;;5134713;27;20280;-49
2021/09/10 04:00:56;;;;;;;22.77;20.27;;;18.50;99.90;;;;;;5146414;27;20280;-49
2021/09/10 04:03:23;;;;;;;23.23;20.33;;;18.60;99.90;;;;;;5122506;27;20201;-49
2021/09/10 04:05:50;;;;;;;27.43;21.67;;;18.70;99.90;;;;;;5125329;27;20213;-46
2021/09/10 04:08:17;;;;;;;27.43;21.93;;;18.70;99.90;;;;;;5111919;27;20573;-50
2021/09/10 04:10:44;;;;;;;25.93;21.93;;;18.70;99.90;;;;;;5132328;27;20220;-48
2021/09/10 04:13:12;;;;;;;26.10;21.63;;;18.80;99.90;;;;;;5123832;27;20215;-51
2021/09/10 04:15:38;;;;;;;29.03;22.60;;;18.80;99.90;;;;;;5127823;27;20212;-46
2021/09/10 04:18:06;;;;;;;29.03;22.97;;;18.80;99.90;;;;;;5143992;27;20653;-47
2021/09/10 04:20:34;;;;;;;29.40;24.40;;;18.80;99.90;;;;;;5096895;27;20197;-48
2021/09/10 04:23:01;;;;;;;33.67;24.83;;;18.90;99.90;;;;;;5101619;27;20246;-47
2021/09/10 04:25:28;;;;;;;29.80;24.87;;;18.90;99.90;;;;;;5132017;27;20222;-47
2021/09/10 04:27:55;;;;;;;31.67;23.97;;;18.90;99.90;;;;;;5137129;27;20244;-49
2021/09/10 04:30:23;;;;;;;30.87;25.10;;;18.90;99.90;;;;;;5140528;27;20697;-45
2021/09/10 04:32:50;;;;;;;32.63;25.23;;;18.90;99.90;;;;;;5145846;27;20192;-47
2021/09/10 04:35:17;;;;;;;32.13;25.43;;;19.00;99.90;;;;;;5100308;27;20597;-51
2021/09/10 04:37:44;;;;;;;29.27;25.07;;;19.00;99.90;;;;;;5103172;28;20189;-52
2021/09/10 04:40:12;;;;;;;32.43;26.33;;;19.00;99.90;;;;;;5113882;27;20594;-49
2021/09/10 04:42:39;;;;;;;46.27;28.17;;;19.00;99.90;;;;;;5126863;27;20196;-47
2021/09/10 04:45:07;;;;;;;33.70;27.37;;;19.00;99.90;;;;;;5128941;27;20221;-48
2021/09/10 04:47:33;;;;;;;41.40;30.27;;;18.90;99.90;;;;;;5136945;27;20188;-48
2021/09/10 04:50:00;;;;;;;42.90;31.37;;;18.90;99.90;;;;;;5129014;27;20220;-49
2021/09/10 04:52:28;;;;;;;42.07;32.67;;;18.70;99.90;;;;;;5120667;27;20875;-47
2021/09/10 04:54:55;;;;;;;44.10;32.40;;;18.60;99.90;;;;;;5113799;27;20219;-44
2021/09/10 04:57:21;;;;;;;46.03;34.70;;;18.60;99.90;;;;;;5117998;27;20192;-47
2021/09/10 04:59:48;;;;;;;53.60;34.13;;;18.50;99.90;;;;;;5111414;27;20662;-50
2021/09/10 05:02:14;;;;;;;49.10;35.77;;;18.40;99.90;;;;;;5108148;27;20291;-48
2021/09/10 05:04:41;;;;;;;49.37;33.93;;;18.40;99.90;;;;;;5102005;27;20231;-49
2021/09/10 05:07:08;;;;;;;47.53;36.17;;;18.30;99.90;;;;;;5104908;27;20211;-49
2021/09/10 05:09:36;;;;;;;49.37;34.83;;;18.20;99.90;;;;;;5110808;27;20208;-52
2021/09/10 05:12:02;;;;;;;50.00;35.90;;;18.20;99.90;;;;;;5122816;27;20455;-47
2021/09/10 05:14:29;;;;;;;48.20;34.70;;;18.20;99.90;;;;;;5135160;27;20281;-52
2021/09/10 05:16:56;;;;;;;46.80;35.80;;;18.20;99.90;;;;;;5132117;27;20211;-43
2021/09/10 05:19:22;;;;;;;49.03;35.83;;;18.20;99.90;;;;;;5118679;27;20196;-46
2021/09/10 05:21:49;;;;;;;52.60;35.30;;;18.20;99.90;;;;;;5091983;27;20205;-47
2021/09/10 05:24:15;;;;;;;49.43;36.53;;;18.20;99.90;;;;;;5110294;28;20573;-46
2021/09/10 05:26:43;;;;;;;49.17;35.10;;;18.20;99.90;;;;;;5114804;27;20211;-48
2021/09/10 05:29:10;;;;;;;44.30;35.17;;;18.20;99.90;;;;;;5135317;27;20210;-46
2021/09/10 05:31:37;;;;;;;48.43;34.37;;;18.30;99.90;;;;;;5115675;27;20205;-47
2021/09/10 05:34:03;;;;;;;48.27;35.20;;;18.20;99.90;;;;;;5121374;28;20959;-47
2021/09/10 05:36:30;;;;;;;46.63;36.27;;;18.20;99.90;;;;;;5109224;27;20201;-49
2021/09/10 05:38:57;;;;;;;46.50;35.23;;;18.20;99.90;;;;;;5105742;27;20888;-48
2021/09/10 05:41:24;;;;;;;50.80;38.00;;;18.20;99.90;;;;;;5102993;27;20581;-44
2021/09/10 05:43:51;;;;;;;49.57;36.47;;;18.20;99.90;;;;;;5113849;27;20197;-46
2021/09/10 05:46:18;;;;;;;46.67;36.20;;;18.20;99.90;;;;;;5118686;27;20193;-45
2021/09/10 05:48:45;;;;;;;46.13;34.77;;;18.20;99.90;;;;;;5120049;27;20193;-50
2021/09/10 05:51:12;;;;;;;50.10;37.50;;;18.20;99.90;;;;;;5116628;27;20216;-44
2021/09/10 05:53:38;;;;;;;47.40;35.90;;;18.30;99.90;;;;;;5097785;27;20229;-44
2021/09/10 05:56:05;;;;;;;44.20;33.90;;;18.20;99.90;;;;;;5103744;27;20215;-49
2021/09/10 05:58:32;;;;;;;44.07;33.30;;;18.30;99.90;;;;;;5115974;27;20204;-49
2021/09/10 06:01:00;;;;;;;47.67;33.30;;;18.30;99.90;;;;;;5113079;27;20212;-44
2021/09/10 06:03:27;;;;;;;41.20;32.37;;;18.30;99.90;;;;;;5110227;27;20563;-45
2021/09/10 06:05:53;;;;;;;49.57;35.30;;;18.30;99.90;;;;;;5105586;27;20209;-49
2021/09/10 06:08:20;;;;;;;46.50;35.40;;;18.30;99.90;;;;;;5107225;27;20197;-46
2021/09/10 06:10:47;;;;;;;50.93;36.83;;;18.30;99.90;;;;;;5105770;27;20217;-46
2021/09/10 06:13:13;;;;;;;55.63;37.60;;;18.30;99.90;;;;;;5112313;27;20200;-48
2021/09/10 06:15:40;;;;;;;47.30;34.70;;;18.30;99.90;;;;;;5123913;27;20690;-50
2021/09/10 06:18:08;;;;;;;49.20;34.90;;;18.30;99.90;;;;;;5120289;27;20200;-46
2021/09/10 06:20:35;;;;;;;52.17;36.80;;;18.40;99.90;;;;;;5109659;27;20192;-49
2021/09/10 06:23:01;;;;;;;51.43;37.10;;;18.30;99.90;;;;;;5101010;27;20205;-49
2021/09/10 06:25:28;;;;;;;53.47;37.43;;;18.30;99.90;;;;;;5112287;27;20224;-48
2021/09/10 06:27:55;;;;;;;53.40;37.63;;;18.30;99.90;;;;;;5117512;27;20200;-47
2021/09/10 06:30:22;;;;;;;49.80;37.27;;;18.30;99.90;;;;;;5118972;27;20216;-50
2021/09/10 06:32:48;;;;;;;55.07;37.70;;;18.30;99.90;;;;;;5114190;27;20188;-47
2021/09/10 06:35:16;;;;;;;55.90;39.57;;;18.30;99.90;;;;;;5118021;27;20220;-43
2021/09/10 06:37:43;;;;;;;61.03;39.83;;;18.30;99.90;;;;;;5107682;27;20225;-52
2021/09/10 06:40:11;;;;;;;63.90;42.27;;;18.30;99.90;;;;;;5116615;27;20208;-46
2021/09/10 06:42:39;;;;;;;61.40;41.77;;;18.30;99.90;;;;;;5110482;27;20212;-50
2021/09/10 06:45:07;;;;;;;62.13;44.30;;;18.30;99.90;;;;;;5115885;27;20204;-46
2021/09/10 06:47:33;;;;;;;60.97;41.53;;;18.30;99.90;;;;;;5122620;27;20208;-45
2021/09/10 06:50:02;;;;;;;69.10;42.63;;;18.30;99.90;;;;;;5110881;27;20817;-49
2021/09/10 06:52:30;;;;;;;60.53;41.17;;;18.30;99.90;;;;;;5126791;27;20726;-52
2021/09/10 06:54:56;;;;;;;62.50;39.77;;;18.30;99.90;;;;;;5114923;27;20317;-45
2021/09/10 06:57:23;;;;;;;54.60;37.50;;;18.30;99.90;;;;;;5110152;27;20200;-48
2021/09/10 06:59:50;;;;;;;55.80;35.90;;;18.30;99.90;;;;;;5113929;27;20789;-46
2021/09/10 07:02:16;;;;;;;67.63;37.40;;;18.20;99.90;;;;;;5120327;27;20576;-45
2021/09/10 07:04:43;;;;;;;49.30;34.73;;;18.20;99.90;;;;;;5123584;27;20219;-46
2021/09/10 07:07:09;;;;;;;53.33;35.90;;;18.20;99.90;;;;;;5123067;27;20554;-53
2021/09/10 07:09:39;;;;;;;58.40;36.43;;;18.20;99.90;;;;;;5120946;27;20557;-45
2021/09/10 07:12:07;;;;;;;50.77;35.57;;;18.20;99.90;;;;;;5121118;27;20200;-47
2021/09/10 07:14:33;;;;;;;53.53;37.17;;;18.20;99.90;;;;;;5109054;27;20250;-48
2021/09/10 07:17:00;;;;;;;52.57;35.27;;;18.20;99.90;;;;;;5134130;27;20463;-51
2021/09/10 07:19:27;;;;;;;50.63;35.30;;;18.20;99.90;;;;;;5147027;27;20194;-46
2021/09/10 07:21:54;;;;;;;48.50;33.90;;;18.20;99.90;;;;;;5142786;27;20192;-49
2021/09/10 07:24:20;;;;;;;54.13;37.53;;;18.20;99.90;;;;;;5146649;27;20587;-46
2021/09/10 07:26:51;;;;;;;57.27;37.87;;;18.20;99.90;;;;;;5123219;27;20546;-51
2021/09/10 07:29:19;;;;;;;56.13;37.87;;;18.20;99.90;;;;;;5125677;27;20735;-48
2021/09/10 07:31:46;;;;;;;52.50;36.57;;;18.30;99.90;;;;;;5115528;27;20227;-50
2021/09/10 07:34:13;;;;;;;49.40;35.40;;;18.30;99.90;;;;;;5134029;27;20212;-49
2021/09/10 07:36:39;;;;;;;54.80;36.07;;;18.30;99.90;;;;;;5123734;27;20193;-45
2021/09/10 07:39:06;;;;;;;52.77;36.50;;;18.30;99.90;;;;;;5124070;27;20191;-49
2021/09/10 07:41:32;;;;;;;55.23;40.00;;;18.30;99.90;;;;;;5101813;27;20201;-49
2021/09/10 07:44:00;;;;;;;52.93;36.77;;;18.30;99.90;;;;;;5106453;27;20972;-45
2021/09/10 07:46:27;;;;;;;55.93;38.97;;;18.30;99.90;;;;;;5123173;27;20204;-46
2021/09/10 07:48:53;;;;;;;57.40;39.63;;;18.30;99.90;;;;;;5129873;27;20189;-46
2021/09/10 07:51:20;;;;;;;63.67;41.37;;;18.30;99.90;;;;;;5125510;27;20710;-48
2021/09/10 07:53:47;;;;;;;60.23;40.30;;;18.40;99.90;;;;;;5121975;27;20184;-52
2021/09/10 07:56:13;;;;;;;52.20;39.80;;;18.40;99.90;;;;;;5119435;27;20201;-51
2021/09/10 07:58:40;;;;;;;57.90;40.40;;;18.40;99.90;;;;;;5135359;27;20203;-46
2021/09/10 08:01:08;;;;;;;56.20;38.67;;;18.40;99.90;;;;;;5127597;27;21280;-49
2021/09/10 08:03:35;;;;;;;58.83;39.73;;;18.50;99.90;;;;;;5136137;27;20188;-49
2021/09/10 08:06:02;;;;;;;50.43;38.13;;;18.50;99.90;;;;;;5124023;27;20208;-44
2021/09/10 08:08:28;;;;;;;54.40;37.53;;;18.50;99.90;;;;;;5125388;27;20884;-50
2021/09/10 08:10:55;;;;;;;53.73;38.30;;;18.50;99.90;;;;;;5112985;27;20225;-50
2021/09/10 08:13:22;;;;;;;53.30;38.00;;;18.50;99.90;;;;;;5123767;27;20208;-47
2021/09/10 08:15:48;;;;;;;45.33;35.00;;;18.50;99.90;;;;;;5127298;27;20204;-45
2021/09/10 08:18:16;;;;;;;49.93;36.33;;;18.50;99.90;;;;;;5124026;27;20209;-47
2021/09/10 08:20:43;;;;;;;49.93;35.57;;;18.50;99.90;;;;;;5130404;27;20268;-44
2021/09/10 08:23:09;;;;;;;48.13;35.57;;;18.50;99.90;;;;;;5124240;27;20224;-46
2021/09/10 08:25:36;;;;;;;51.07;36.30;;;18.50;99.90;;;;;;5126148;27;20211;-45
2021/09/10 08:28:03;;;;;;;49.00;34.13;;;18.50;99.90;;;;;;5121019;27;20207;-49
2021/09/10 08:30:29;;;;;;;45.00;34.93;;;18.50;99.90;;;;;;5145439;27;20712;-46
2021/09/10 08:32:56;;;;;;;49.40;34.80;;;18.50;99.90;;;;;;5124119;27;20301;-47
2021/09/10 08:35:24;;;;;;;44.50;33.80;;;18.50;99.90;;;;;;5130486;27;20221;-44
2021/09/10 08:37:51;;;;;;;45.37;34.67;;;18.60;99.90;;;;;;5139008;27;20924;-44
2021/09/10 08:40:18;;;;;;;50.80;35.43;;;18.60;99.90;;;;;;5145950;27;20208;-49
2021/09/10 08:42:45;;;;;;;48.30;34.03;;;18.50;99.90;;;;;;5114553;27;20259;-47
2021/09/10 08:45:16;;;;;;;44.70;32.90;;;18.60;99.90;;;;;;5104250;28;20217;-50
2021/09/10 08:47:43;;;;;;;48.83;34.30;;;18.60;99.90;;;;;;5101566;28;20194;-49
2021/09/10 08:50:11;;;;;;;46.97;33.50;;;18.50;99.90;;;;;;5110785;27;20208;-47
2021/09/10 08:52:39;;;;;;;47.27;34.13;;;18.50;99.90;;;;;;5131014;27;20205;-45
2021/09/10 08:55:06;;;;;;;44.30;32.77;;;18.50;99.90;;;;;;5101081;27;20220;-48
2021/09/10 08:57:35;;;;;;;41.83;31.77;;;18.60;99.90;;;;;;5109791;27;20211;-50
2021/09/10 09:00:07;;;;;;;44.23;32.83;;;18.50;99.90;;;;;;5104378;27;20200;-46
2021/09/10 09:02:34;;;;;;;43.13;31.03;;;18.50;99.90;;;;;;5104395;28;20194;-45
2021/09/10 09:05:01;;;;;;;39.47;29.10;;;18.50;99.90;;;;;;5096020;27;20212;-44
2021/09/10 09:07:28;;;;;;;39.37;27.90;;;18.50;99.90;;;;;;5125421;27;20200;-44
2021/09/10 09:09:59;;;;;;;34.00;25.73;;;18.50;99.90;;;;;;5101803;27;20196;-47
2021/09/10 09:12:28;;;;;;;44.50;26.93;;;18.50;99.90;;;;;;5117253;27;20189;-48
2021/09/10 09:14:57;;;;;;;33.00;24.20;;;18.50;99.90;;;;;;5091716;27;20217;-48
2021/09/10 09:17:27;;;;;;;32.63;23.07;;;18.50;99.90;;;;;;5103195;27;20215;-45
2021/09/10 09:20:15;;;;;;;34.97;23.10;;;18.50;99.90;;;;;;5094833;27;20650;-53
2021/09/10 09:22:53;;;;;;;27.53;21.73;;;18.50;99.90;;;;;;5127363;27;20204;-47
2021/09/10 09:25:24;;;;;;;31.33;21.83;;;18.50;99.90;;;;;;5122433;27;20333;-48
2021/09/10 09:27:50;;;;;;;34.33;23.10;;;18.40;99.90;;;;;;5120418;27;20184;-52
2021/09/10 09:30:36;;;;;;;27.97;21.80;;;18.50;99.90;;;;;;5111503;27;20228;-47
2021/09/10 09:33:03;;;;;;;29.40;20.53;;;18.50;99.90;;;;;;5104975;27;20199;-54
2021/09/10 09:35:31;;;;;;;25.97;19.20;;;18.50;99.90;;;;;;5114238;27;20220;-47
2021/09/10 09:37:58;;;;;;;26.13;20.13;;;18.50;99.90;;;;;;5129549;27;20194;-51
2021/09/10 09:40:33;;;;;;;25.17;18.63;;;18.50;99.90;;;;;;5111923;27;20205;-47
2021/09/10 09:43:00;;;;;;;27.77;19.77;;;18.50;99.90;;;;;;5104335;28;20205;-47
2021/09/10 09:45:26;;;;;;;28.03;19.60;;;18.50;99.90;;;;;;5097481;27;20221;-49
2021/09/10 09:47:53;;;;;;;23.17;18.77;;;18.50;99.90;;;;;;5109521;27;20241;-47
2021/09/10 09:50:22;;;;;;;25.67;19.37;;;18.60;99.90;;;;;;5102335;27;20216;-47
2021/09/10 09:52:50;;;;;;;20.47;16.33;;;18.60;99.90;;;;;;5133922;27;20261;-47
2021/09/10 09:55:17;;;;;;;23.47;16.83;;;18.60;99.90;;;;;;5125289;27;20210;-45
2021/09/10 09:57:45;;;;;;;20.73;15.63;;;18.60;99.90;;;;;;5132726;27;20670;-49
2021/09/10 10:00:13;;;;;;;18.40;14.90;;;18.60;99.90;;;;;;5111512;27;20196;-48
2021/09/10 10:02:39;;;;;;;17.10;14.00;;;18.60;99.90;;;;;;5107573;27;20212;-49
2021/09/10 10:05:08;;;;;;;18.00;13.20;;;18.60;99.90;;;;;;5122471;27;20880;-48
2021/09/10 10:07:39;;;;;;;20.37;14.97;;;18.50;99.90;;;;;;5107170;27;20197;-50
2021/09/10 10:10:08;;;;;;;22.13;14.30;;;18.60;99.90;;;;;;5123042;27;20850;-44
2021/09/10 10:12:36;;;;;;;17.37;14.27;;;18.50;99.90;;;;;;5115183;27;20205;-47
2021/09/10 10:15:23;;;;;;;20.47;14.57;;;18.60;99.90;;;;;;5101926;27;20209;-50
2021/09/10 10:17:51;;;;;;;21.73;15.27;;;18.60;99.90;;;;;;5112051;27;20205;-53
2021/09/10 10:20:52;;;;;;;15.80;13.43;;;18.60;99.90;;;;;;5115616;27;20194;-53
2021/09/10 10:23:57;;;;;;;19.03;13.27;;;18.60;99.90;;;;;;5112775;27;20222;-47
2021/09/10 10:26:44;;;;;;;16.17;13.37;;;18.50;99.90;;;;;;5117373;27;20192;-52
2021/09/10 10:29:14;;;;;;;18.40;12.40;;;18.50;99.90;;;;;;5098419;27;20220;-47
2021/09/10 10:32:12;;;;;;;16.50;12.17;;;18.40;99.90;;;;;;5114005;27;20208;-52
2021/09/10 10:35:21;;;;;;;12.80;10.87;;;18.40;99.90;;;;;;5046819;28;20237;-50
2021/09/10 10:37:52;;;;;;;12.47;11.13;;;18.40;99.90;;;;;;5109265;27;20576;-47
2021/09/10 10:40:31;;;;;;;9.83;8.83;;;18.40;99.90;;;;;;5131792;27;20623;-50
2021/09/10 10:43:00;;;;;;;13.60;9.93;;;18.40;99.90;;;;;;5117188;27;20189;-48
2021/09/10 10:46:03;;;;;;;13.73;10.07;;;18.30;99.90;;;;;;5098238;27;20305;-51
2021/09/10 10:48:48;;;;;;;7.63;6.87;;;18.30;99.90;;;;;;5104023;27;20240;-48
2021/09/10 10:51:52;;;;;;;10.03;7.60;;;18.40;99.90;;;;;;5123888;27;20705;-48
2021/09/10 10:54:26;;;;;;;8.60;7.30;;;18.30;99.90;;;;;;5115908;27;20226;-48
2021/09/10 10:56:53;;;;;;;13.17;8.03;;;18.40;99.90;;;;;;5138710;27;20200;-50
2021/09/10 10:59:29;;;;;;;9.87;7.17;;;18.40;99.90;;;;;;5126580;27;20405;-55
2021/09/10 11:02:28;;;;;;;9.53;7.83;;;18.40;99.90;;;;;;5109095;27;20680;-47
2021/09/10 11:05:08;;;;;;;10.40;7.87;;;18.50;99.90;;;;;;5123183;27;20216;-44
2021/09/10 11:07:35;;;;;;;8.83;7.90;;;18.40;99.90;;;;;;5122938;27;20196;-44
2021/09/10 11:10:04;;;;;;;12.30;7.67;;;18.50;99.90;;;;;;5118806;27;20702;-45
2021/09/10 11:12:32;;;;;;;8.63;7.67;;;18.60;99.90;;;;;;5137829;27;20208;-49
2021/09/10 11:15:00;;;;;;;9.20;7.57;;;18.60;99.90;;;;;;5109334;27;20220;-44
2021/09/10 11:17:28;;;;;;;8.33;7.40;;;18.70;99.90;;;;;;5109964;27;20217;-46
2021/09/10 11:19:56;;;;;;;9.20;7.13;;;18.80;99.90;;;;;;5109823;27;20212;-49
2021/09/10 11:22:25;;;;;;;8.93;6.87;;;18.80;99.90;;;;;;5106580;27;20195;-44
2021/09/10 11:25:07;;;;;;;11.80;7.53;;;18.80;99.90;;;;;;5112026;27;20220;-44
2021/09/10 11:27:38;;;;;;;7.97;7.13;;;18.90;99.90;;;;;;5133087;27;20835;-45
2021/09/10 11:30:06;;;;;;;7.80;6.97;;;19.00;99.90;;;;;;5103039;27;20196;-53
2021/09/10 11:32:33;;;;;;;8.00;7.30;;;19.00;99.90;;;;;;5116526;27;20852;-50
2021/09/10 11:34:59;;;;;;;8.73;7.10;;;19.10;99.90;;;;;;5115081;27;20223;-46
2021/09/10 11:37:28;;;;;;;11.60;8.80;;;19.10;99.90;;;;;;5128573;27;20192;-46
2021/09/10 11:39:55;;;;;;;8.43;6.23;;;19.20;99.90;;;;;;5100798;27;20204;-47
2021/09/10 11:42:33;;;;;;;7.43;6.40;;;19.30;99.90;;;;;;5130108;27;20176;-48
2021/09/10 11:45:05;;;;;;;7.27;5.87;;;19.30;99.90;;;;;;5124762;27;20208;-50
2021/09/10 11:47:32;;;;;;;6.37;5.73;;;19.40;99.90;;;;;;5103797;27;20204;-49
2021/09/10 11:50:00;;;;;;;5.03;4.63;;;19.40;99.90;;;;;;5105111;27;20197;-46
2021/09/10 11:52:34;;;;;;;7.40;5.97;;;19.50;99.90;;;;;;5104732;27;20266;-47
2021/09/10 11:55:12;;;;;;;6.67;6.07;;;19.50;99.90;;;;;;5075418;27;22340;-47
2021/09/10 11:57:40;;;;;;;4.30;4.00;;;19.60;99.90;;;;;;5116883;27;20253;-46
2021/09/10 12:00:10;;;;;;;5.70;5.20;;;19.70;99.90;;;;;;5123324;27;20204;-48
2021/09/10 12:02:39;;;;;;;4.73;4.07;;;19.70;99.90;;;;;;5108633;27;20209;-47
2021/09/10 12:05:07;;;;;;;4.37;3.83;;;19.80;99.90;;;;;;5120827;27;20830;-47
2021/09/10 12:07:35;;;;;;;3.77;3.27;;;19.80;99.90;;;;;;5125177;27;20208;-48
2021/09/10 12:10:03;;;;;;;2.87;2.57;;;19.90;99.90;;;;;;5101729;27;20203;-47
2021/09/10 12:12:31;;;;;;;4.50;3.50;;;20.10;99.90;;;;;;5112331;27;20209;-50
2021/09/10 12:15:02;;;;;;;4.67;3.60;;;20.20;99.90;;;;;;5119148;27;20265;-48
2021/09/10 12:17:36;;;;;;;3.87;3.43;;;20.30;99.90;;;;;;5104733;27;20205;-48
2021/09/10 12:20:14;;;;;;;4.43;4.03;;;20.40;99.90;;;;;;5106451;27;20194;-49
2021/09/10 12:22:59;;;;;;;4.60;4.07;;;20.60;99.90;;;;;;5116479;27;20196;-44
2021/09/10 12:25:46;;;;;;;4.73;4.33;;;20.70;99.90;;;;;;5111059;27;20247;-48
2021/09/10 12:28:29;;;;;;;5.37;3.70;;;20.80;99.90;;;;;;5109401;27;20693;-49
2021/09/10 12:31:00;;;;;;;4.30;4.00;;;20.80;99.90;;;;;;5090329;27;20239;-49
2021/09/10 12:33:29;;;;;;;4.47;3.77;;;20.90;99.90;;;;;;5103964;27;20208;-47
2021/09/10 12:35:59;;;;;;;5.57;3.80;;;21.00;99.90;;;;;;5131062;27;20221;-47
2021/09/10 12:38:31;;;;;;;3.97;3.57;;;21.00;99.90;;;;;;5122212;27;20220;-46